createdAt,value
2022-08-29T00:00:21.967Z,-36.00
2022-08-29T00:05:32.569Z,-180.00
2022-08-29T00:10:39.762Z,-180.00
2022-08-29T00:15:46.937Z,-36.00
2022-08-29T00:20:54.122Z,-144.00
2022-08-29T00:26:01.323Z,-180.00
2022-08-29T00:31:08.513Z,-144.00
2022-08-29T00:36:15.783Z,-180.00
2022-08-29T00:41:22.950Z,-216.00
2022-08-29T00:46:30.157Z,-180.00
2022-08-29T00:51:37.334Z,-180.00
2022-08-29T00:56:44.625Z,-216.00
2022-08-29T01:01:51.833Z,-216.00
2022-08-29T01:07:01.090Z,-180.00
2022-08-29T01:12:08.289Z,-180.00
2022-08-29T01:17:15.546Z,-180.00
2022-08-29T01:22:22.762Z,-180.00
2022-08-29T01:27:29.920Z,-180.00
2022-08-29T01:32:37.102Z,-180.00
2022-08-29T01:37:44.307Z,-180.00
2022-08-29T01:42:51.505Z,-180.00
2022-08-29T01:48:02.965Z,-180.00
2022-08-29T01:53:05.835Z,-180.00
2022-08-29T01:58:16.478Z,-180.00
2022-08-29T02:03:23.548Z,-216.00
2022-08-29T02:08:30.811Z,-180.00
2022-08-29T02:13:41.036Z,-216.00
2022-08-29T02:18:48.317Z,-180.00
2022-08-29T02:23:55.600Z,-180.00
2022-08-29T02:29:05.592Z,-180.00
2022-08-29T02:34:12.776Z,-180.00
2022-08-29T02:39:19.961Z,-180.00
2022-08-29T02:44:27.144Z,-180.00
2022-08-29T02:49:34.526Z,-180.00
2022-08-29T02:54:41.566Z,-180.00
2022-08-29T02:59:48.811Z,-180.00
2022-08-29T03:04:55.995Z,-180.00
2022-08-29T03:10:03.167Z,-180.00
2022-08-29T03:15:10.357Z,-180.00
2022-08-29T03:20:17.737Z,-180.00
2022-08-29T03:25:24.929Z,-180.00
2022-08-29T03:30:32.156Z,-180.00
2022-08-29T03:35:39.408Z,-180.00
2022-08-29T03:40:46.695Z,-180.00
2022-08-29T03:45:53.847Z,-180.00
2022-08-29T03:51:01.052Z,-180.00
2022-08-29T03:56:08.341Z,-180.00
2022-08-29T04:01:15.571Z,-180.00
2022-08-29T04:06:22.806Z,-180.00
2022-08-29T04:11:29.997Z,-180.00
2022-08-29T04:16:37.246Z,-180.00
2022-08-29T04:21:44.376Z,-144.00
2022-08-29T04:26:51.650Z,-144.00
2022-08-29T04:31:58.814Z,-108.00
2022-08-29T04:37:06.001Z,-108.00
2022-08-29T04:42:18.241Z,-72.00
2022-08-29T04:47:21.103Z,0.00
2022-08-29T04:52:28.359Z,36.00
2022-08-29T04:57:35.579Z,108.00
2022-08-29T05:02:42.756Z,216.00
2022-08-29T05:07:51.579Z,288.00
2022-08-29T05:12:58.842Z,360.00
2022-08-29T05:18:11.505Z,396.00
2022-08-29T05:23:18.706Z,756.00
2022-08-29T05:28:25.895Z,900.00
2022-08-29T05:33:33.349Z,1044.00
2022-08-29T05:38:40.610Z,1152.00
2022-08-29T05:43:47.852Z,1260.00
2022-08-29T05:48:55.256Z,1368.00
2022-08-29T05:54:02.523Z,1476.00
2022-08-29T05:59:09.782Z,1548.00
2022-08-29T06:04:17.075Z,1620.00
2022-08-29T06:09:24.270Z,1728.00
2022-08-29T06:14:31.453Z,10656.00
2022-08-29T06:19:38.630Z,10836.00
2022-08-29T06:24:49.350Z,11052.00
2022-08-29T06:30:00.102Z,11196.00
2022-08-29T06:35:03.952Z,11376.00
2022-08-29T06:40:13.166Z,11520.00
2022-08-29T06:45:20.417Z,11628.00
2022-08-29T06:50:27.699Z,11772.00
2022-08-29T06:55:35.171Z,11880.00
2022-08-29T07:00:46.150Z,12024.00
2022-08-29T07:05:49.764Z,12132.00
2022-08-29T07:10:57.302Z,12204.00
2022-08-29T07:16:09.149Z,12312.00
2022-08-29T07:21:20.339Z,12420.00
2022-08-29T07:26:23.598Z,12528.00
2022-08-29T07:31:31.243Z,12600.00
2022-08-29T07:36:38.016Z,12708.00
2022-08-29T07:41:45.300Z,12780.00
2022-08-29T07:46:52.536Z,12132.00
2022-08-29T07:51:59.749Z,12348.00
2022-08-29T07:57:07.150Z,12456.00
2022-08-29T08:02:14.670Z,12528.00
2022-08-29T08:07:21.695Z,12564.00
2022-08-29T08:12:28.970Z,12636.00
2022-08-29T08:17:36.169Z,12672.00
2022-08-29T08:22:43.326Z,12708.00
2022-08-29T08:27:50.505Z,12708.00
2022-08-29T08:32:57.895Z,12708.00
2022-08-29T08:38:05.096Z,12744.00
2022-08-29T08:43:12.271Z,12744.00
2022-08-29T08:48:19.499Z,12816.00
2022-08-29T08:53:26.731Z,12816.00
2022-08-29T08:58:33.907Z,12816.00
2022-08-29T09:03:41.131Z,12852.00
2022-08-29T09:08:48.385Z,12888.00
2022-08-29T09:13:55.563Z,12888.00
2022-08-29T09:19:02.763Z,12888.00
2022-08-29T09:24:09.937Z,12924.00
2022-08-29T09:29:17.349Z,12924.00
2022-08-29T09:34:24.505Z,12924.00
2022-08-29T09:39:31.766Z,12924.00
2022-08-29T09:44:39.095Z,12924.00
2022-08-29T09:49:46.266Z,12924.00
2022-08-29T09:54:53.660Z,12924.00
2022-08-29T10:00:00.858Z,12924.00
2022-08-29T10:05:13.057Z,12924.00
2022-08-29T10:10:16.621Z,12924.00
2022-08-29T10:15:47.018Z,12852.00
2022-08-29T10:20:31.347Z,12816.00
2022-08-29T10:25:38.597Z,12780.00
2022-08-29T10:30:45.853Z,12744.00
2022-08-29T10:35:54.731Z,12780.00
2022-08-29T10:41:00.253Z,12744.00
2022-08-29T10:46:07.580Z,12780.00
2022-08-29T10:51:14.798Z,12816.00
2022-08-29T10:56:21.974Z,12816.00
2022-08-29T11:01:29.265Z,12888.00
2022-08-29T11:11:43.826Z,13104.00
2022-08-29T11:16:51.049Z,13032.00
2022-08-29T11:21:58.226Z,13104.00
2022-08-29T11:27:05.469Z,13500.00
2022-08-29T11:32:16.312Z,13680.00
2022-08-29T11:37:23.524Z,13068.00
2022-08-29T11:47:41.044Z,13212.00
2022-08-29T11:52:45.135Z,13140.00
2022-08-29T11:57:52.411Z,12996.00
2022-08-29T12:02:59.597Z,12924.00
2022-08-29T12:08:33.331Z,12852.00
2022-08-29T12:13:14.227Z,12888.00
2022-08-29T12:18:21.331Z,12708.00
2022-08-29T12:23:28.441Z,12852.00
2022-08-29T12:28:35.641Z,12780.00
2022-08-29T12:33:42.805Z,12672.00
2022-08-29T12:38:50.274Z,12672.00
2022-08-29T12:43:57.478Z,12816.00
2022-08-29T12:49:04.677Z,12780.00
2022-08-29T12:54:11.952Z,12672.00
2022-08-29T12:59:19.140Z,12420.00
2022-08-29T13:04:30.977Z,12492.00
2022-08-29T13:09:33.606Z,12312.00
2022-08-29T13:14:40.800Z,12420.00
2022-08-29T13:19:47.994Z,12384.00
2022-08-29T13:24:55.197Z,12168.00
2022-08-29T13:30:02.381Z,11772.00
2022-08-29T13:35:09.630Z,11556.00
2022-08-29T13:40:17.596Z,11520.00
2022-08-29T13:45:24.826Z,11484.00
2022-08-29T13:50:32.134Z,11700.00
2022-08-29T13:55:39.185Z,11196.00
2022-08-29T14:00:46.616Z,11016.00
2022-08-29T14:05:53.567Z,10944.00
2022-08-29T14:11:00.761Z,10836.00
2022-08-29T14:16:08.034Z,10764.00
2022-08-29T14:21:15.212Z,10656.00
2022-08-29T14:26:22.397Z,10548.00
2022-08-29T14:31:29.688Z,10512.00
2022-08-29T14:36:43.470Z,10404.00
2022-08-29T14:41:46.353Z,10296.00
2022-08-29T14:46:53.551Z,10332.00
2022-08-29T14:52:00.747Z,10368.00
2022-08-29T14:57:07.903Z,10584.00
2022-08-29T15:02:15.260Z,10836.00
2022-08-29T15:07:22.272Z,11088.00
2022-08-29T15:12:29.489Z,11340.00
2022-08-29T15:17:36.684Z,11592.00
2022-08-29T15:22:43.884Z,11880.00
2022-08-29T15:27:51.127Z,12024.00
2022-08-29T15:32:58.333Z,12204.00
2022-08-29T15:38:05.506Z,12348.00
2022-08-29T15:43:12.686Z,12384.00
2022-08-29T15:48:19.869Z,12312.00
2022-08-29T15:53:27.055Z,12240.00
2022-08-29T15:58:36.448Z,12168.00
2022-08-29T16:03:43.631Z,12096.00
2022-08-29T16:08:55.324Z,11988.00
2022-08-29T16:14:24.578Z,11880.00
2022-08-29T16:19:05.285Z,11700.00
2022-08-29T16:24:12.468Z,11520.00
2022-08-29T16:29:26.254Z,13824.00
2022-08-29T16:34:26.848Z,11304.00
2022-08-29T16:39:34.023Z,12204.00
2022-08-29T16:44:41.217Z,12096.00
2022-08-29T16:49:48.499Z,10980.00
2022-08-29T16:54:55.688Z,11772.00
2022-08-29T17:00:03.358Z,11556.00
2022-08-29T17:05:10.534Z,10548.00
2022-08-29T17:10:17.754Z,11304.00
2022-08-29T17:15:24.962Z,9612.00
2022-08-29T17:20:36.824Z,6480.00
2022-08-29T17:25:39.288Z,4680.00
2022-08-29T17:30:46.530Z,3924.00
2022-08-29T17:35:54.179Z,3708.00
2022-08-29T17:41:01.345Z,3312.00
2022-08-29T17:46:08.656Z,2304.00
2022-08-29T17:51:15.789Z,1980.00
2022-08-29T17:56:22.891Z,1764.00
2022-08-29T18:01:32.504Z,1152.00
2022-08-29T18:06:37.385Z,648.00
2022-08-29T18:11:44.612Z,324.00
2022-08-29T18:16:53.406Z,108.00
2022-08-29T18:22:01.860Z,-36.00
2022-08-29T18:27:09.067Z,-144.00
2022-08-29T18:32:16.414Z,7992.00
2022-08-29T18:37:23.630Z,7596.00
2022-08-29T18:42:40.384Z,7560.00
2022-08-29T18:47:38.060Z,7524.00
2022-08-29T18:52:45.279Z,7956.00
2022-08-29T18:57:52.605Z,7848.00
2022-08-29T19:02:59.847Z,7632.00
2022-08-29T19:08:07.044Z,7524.00
2022-08-29T19:13:14.464Z,7776.00
2022-08-29T19:18:21.589Z,7848.00
2022-08-29T19:23:29.192Z,7956.00
2022-08-29T19:28:36.753Z,7920.00
2022-08-29T19:33:49.927Z,7920.00
2022-08-29T19:38:57.169Z,7956.00
2022-08-29T19:44:04.863Z,7956.00
2022-08-29T19:49:12.134Z,7992.00
2022-08-29T19:54:19.411Z,7848.00
2022-08-29T19:59:26.649Z,7920.00
2022-08-29T20:04:33.902Z,7920.00
2022-08-29T20:09:41.175Z,7956.00
2022-08-29T20:14:50.055Z,7920.00
2022-08-29T20:19:57.236Z,8064.00
2022-08-29T20:25:04.522Z,7920.00
2022-08-29T20:30:11.704Z,7956.00
2022-08-29T20:35:18.888Z,7992.00
2022-08-29T20:40:26.205Z,7992.00
2022-08-29T20:45:35.567Z,8028.00
2022-08-29T20:50:42.761Z,7884.00
2022-08-29T20:55:50.014Z,7776.00
2022-08-29T21:00:57.287Z,7668.00
2022-08-29T21:06:04.430Z,7812.00
2022-08-29T21:11:14.529Z,7704.00
2022-08-29T21:16:18.839Z,7704.00
2022-08-29T21:21:28.985Z,7776.00
2022-08-29T21:26:36.266Z,7740.00
2022-08-29T21:31:43.530Z,7812.00
2022-08-29T21:36:50.748Z,7812.00
2022-08-29T21:41:57.953Z,7884.00
2022-08-29T21:47:05.201Z,7812.00
2022-08-29T21:52:12.333Z,7884.00
2022-08-29T21:57:19.491Z,7848.00
2022-08-29T22:02:26.769Z,7704.00
2022-08-29T22:07:33.869Z,7956.00
2022-08-29T22:12:41.048Z,7884.00
2022-08-29T22:17:48.211Z,7668.00
2022-08-29T22:22:55.413Z,7812.00
2022-08-29T22:28:02.592Z,7884.00
2022-08-29T22:33:16.308Z,7956.00
2022-08-29T22:38:18.783Z,7884.00
2022-08-29T22:43:25.929Z,8064.00
2022-08-29T22:48:33.143Z,8064.00
2022-08-29T22:53:40.331Z,8100.00
2022-08-29T22:58:47.591Z,7992.00
2022-08-29T23:03:54.797Z,7992.00
2022-08-29T23:09:01.985Z,7992.00
2022-08-29T23:14:09.157Z,7920.00
2022-08-29T23:19:16.426Z,7596.00
2022-08-29T23:24:23.618Z,-144.00
2022-08-29T23:29:30.794Z,-180.00
2022-08-29T23:34:37.983Z,-144.00
2022-08-29T23:39:45.178Z,-144.00
2022-08-29T23:44:52.375Z,-144.00
2022-08-29T23:49:59.553Z,-180.00
2022-08-29T23:55:06.792Z,-180.00
